Time;durP1;ratioP1;P1;durP2;ratioP2;P2;SDS_P1;SDS_P2;PMS_P1;PMS_P2;Temp;Humidity;BMP_temperature;BMP_pressure;BME280_temperature;BME280_humidity;BME280_pressure;Samples;Min_cycle;Max_cycle;Signal;HPM_P1;HPM_P2
2022/04/30 00:00:57;;;;;;;43.10;17.73;;;;;;;10.00;100.00;102588.94;5070094;28;20393;-78
2022/04/30 00:03:27;;;;;;;35.20;16.60;;;;;;;9.98;100.00;102591.78;5031448;28;20036;-78
2022/04/30 00:05:54;;;;;;;35.45;16.30;;;;;;;9.99;100.00;102592.63;5052294;28;20071;-79
2022/04/30 00:08:20;;;;;;;39.00;15.18;;;;;;;9.97;100.00;102581.97;5070870;28;20042;-78
2022/04/30 00:10:48;;;;;;;38.38;15.13;;;;;;;9.98;100.00;102586.38;5050979;28;20033;-82
2022/04/30 00:13:14;;;;;;;44.92;17.23;;;;;;;9.98;100.00;102586.38;5054590;28;20401;-79
2022/04/30 00:15:40;;;;;;;54.03;19.60;;;;;;;9.95;100.00;102586.66;5053579;28;20028;-77
2022/04/30 00:18:06;;;;;;;42.67;17.17;;;;;;;9.96;100.00;102582.97;5069207;28;20032;-78
2022/04/30 00:20:32;;;;;;;44.88;18.15;;;;;;;9.98;100.00;102591.78;5049018;28;20029;-78
2022/04/30 00:22:58;;;;;;;43.83;16.02;;;;;;;9.97;100.00;102584.66;5035570;28;20522;-79
2022/04/30 00:25:24;;;;;;;42.65;18.00;;;;;;;9.97;100.00;102586.50;5037029;28;20056;-78
2022/04/30 00:27:50;;;;;;;46.67;19.42;;;;;;;9.95;100.00;102577.72;5052641;28;20032;-82
2022/04/30 00:30:16;;;;;;;42.40;18.88;;;;;;;9.83;100.00;102564.31;5052358;28;20039;-77
2022/04/30 00:32:42;;;;;;;47.60;18.35;;;;;;;9.87;100.00;102573.84;5037090;28;20075;-82
2022/04/30 00:35:08;;;;;;;42.83;18.73;;;;;;;9.86;100.00;102572.13;5068962;28;20457;-77
2022/04/30 00:37:34;;;;;;;46.88;18.20;;;;;;;9.79;100.00;102565.56;5055201;28;20043;-78
2022/04/30 00:39:59;;;;;;;52.88;18.80;;;;;;;9.80;100.00;102571.78;5069682;28;20393;-79
2022/04/30 00:42:25;;;;;;;48.95;19.13;;;;;;;9.74;100.00;102561.53;5052240;28;20032;-81
2022/04/30 00:44:51;;;;;;;48.15;19.33;;;;;;;9.69;100.00;102568.16;5034604;28;20435;-80
2022/04/30 00:47:18;;;;;;;49.33;18.98;;;;;;;9.69;100.00;102573.53;5033449;28;20029;-78
2022/04/30 00:49:45;;;;;;;52.63;19.42;;;;;;;9.66;100.00;102565.72;5070132;28;20025;-79
2022/04/30 00:52:14;;;;;;;46.58;19.25;;;;;;;9.63;100.00;102571.34;5069908;28;20047;-77
2022/04/30 00:54:40;;;;;;;47.83;19.20;;;;;;;9.58;100.00;102570.88;5070477;28;20070;-79
2022/04/30 00:57:09;;;;;;;56.25;19.85;;;;;;;9.55;100.00;102572.94;5035808;28;20037;-79
2022/04/30 00:59:38;;;;;;;50.13;20.13;;;;;;;9.49;100.00;102562.69;5049549;28;20107;-80
2022/04/30 01:02:04;;;;;;;54.70;21.00;;;;;;;9.51;100.00;102568.81;5051453;28;20039;-78
2022/04/30 01:04:29;;;;;;;49.55;20.42;;;;;;;9.44;100.00;102561.22;5035880;28;20036;-80
2022/04/30 01:07:05;;;;;;;52.85;20.20;;;;;;;9.40;100.00;102551.72;5050090;28;20511;-78
2022/04/30 01:09:32;;;;;;;51.95;21.42;;;;;;;9.47;100.00;102560.13;5069411;28;20031;-79
2022/04/30 01:12:03;;;;;;;50.35;19.92;;;;;;;9.47;100.00;102557.44;5066780;28;20457;-79
2022/04/30 01:14:31;;;;;;;45.58;19.55;;;;;;;9.43;100.00;102556.00;5066012;28;20577;-78
2022/04/30 01:16:58;;;;;;;44.78;19.55;;;;;;;9.43;100.00;102559.53;5068996;28;20115;-78
2022/04/30 01:19:26;;;;;;;48.97;18.48;;;;;;;9.39;100.00;102555.41;5056584;28;20103;-81
2022/04/30 01:21:56;;;;;;;48.55;18.88;;;;;;;9.28;100.00;102538.44;5068322;28;20469;-77
2022/04/30 01:24:23;;;;;;;51.22;19.88;;;;;;;9.38;100.00;102559.03;5029232;28;20063;-78
2022/04/30 01:26:51;;;;;;;44.58;17.92;;;;;;;9.37;100.00;102557.34;5066985;28;20028;-79
2022/04/30 01:29:18;;;;;;;43.38;18.63;;;;;;;9.37;100.00;102564.56;5054220;28;20043;-79
2022/04/30 01:37:25;;;;;;;48.70;19.25;;;;;;;9.33;100.00;102547.81;5049328;28;20119;-80
2022/04/30 01:39:58;;;;;;;46.00;18.02;;;;;;;9.32;100.00;102556.00;5052469;28;20036;-80
2022/04/30 01:42:31;;;;;;;42.55;19.25;;;;;;;9.31;100.00;102555.13;5063260;28;20482;-80
2022/04/30 01:44:58;;;;;;;42.65;17.45;;;;;;;9.25;100.00;102556.47;5068974;28;20035;-79
2022/04/30 01:47:24;;;;;;;41.35;16.95;;;;;;;9.25;100.00;102539.53;5034550;28;20028;-80
2022/04/30 01:49:50;;;;;;;46.20;17.25;;;;;;;9.31;100.00;102546.22;5035734;28;20033;-77
2022/04/30 01:52:16;;;;;;;43.80;17.55;;;;;;;9.28;100.00;102550.03;5067943;28;20051;-78
2022/04/30 01:54:42;;;;;;;41.58;18.00;;;;;;;9.28;100.00;102554.53;5068378;28;20032;-80
2022/04/30 01:57:08;;;;;;;39.05;17.17;;;;;;;9.28;100.00;102550.03;5067788;28;20044;-81
2022/04/30 01:59:34;;;;;;;39.85;17.23;;;;;;;9.29;100.00;102542.81;5070375;28;20036;-78
2022/04/30 02:02:01;;;;;;;42.58;16.60;;;;;;;9.29;100.00;102546.38;5064911;28;20500;-79
2022/04/30 02:04:28;;;;;;;38.63;17.67;;;;;;;9.33;100.00;102541.59;5068141;28;20040;-79
2022/04/30 02:06:55;;;;;;;43.33;18.60;;;;;;;9.30;100.00;102540.03;5052474;28;20044;-79
2022/04/30 02:09:22;;;;;;;45.72;17.92;;;;;;;9.26;100.00;102530.50;5051043;28;20024;-81
2022/04/30 02:12:05;;;;;;;44.53;18.67;;;;;;;9.27;100.00;102531.38;5052793;28;20116;-79
2022/04/30 02:14:33;;;;;;;44.70;18.35;;;;;;;9.28;100.00;102533.91;5034421;28;20445;-79
2022/04/30 02:17:00;;;;;;;41.10;18.40;;;;;;;9.26;100.00;102522.44;5034158;28;20044;-78
2022/04/30 02:19:28;;;;;;;38.90;18.20;;;;;;;9.29;100.00;102524.03;5067545;28;20024;-79
2022/04/30 02:21:58;;;;;;;38.40;17.05;;;;;;;9.28;100.00;102516.97;5071642;28;20032;-79
2022/04/30 02:24:27;;;;;;;43.08;17.17;;;;;;;9.27;100.00;102520.63;5064381;28;20078;-78
2022/04/30 02:26:53;;;;;;;37.88;17.65;;;;;;;9.28;100.00;102519.66;5049769;28;20020;-79
2022/04/30 02:29:19;;;;;;;43.70;18.52;;;;;;;9.24;100.00;102511.00;5048555;28;20033;-81
2022/04/30 02:31:45;;;;;;;38.67;17.65;;;;;;;9.12;100.00;102490.50;5069723;28;20028;-78
2022/04/30 02:34:11;;;;;;;43.38;16.52;;;;;;;9.25;100.00;102507.31;5067712;28;20032;-80
2022/04/30 02:36:37;;;;;;;38.22;16.58;;;;;;;9.27;100.00;102516.09;5065755;28;20036;-83
2022/04/30 02:39:02;;;;;;;41.72;17.75;;;;;;;9.25;100.00;102513.53;5051755;28;20051;-80
2022/04/30 02:41:29;;;;;;;42.72;18.23;;;;;;;9.27;100.00;102518.78;5071962;28;20025;-82
2022/04/30 02:43:55;;;;;;;47.65;17.80;;;;;;;9.16;100.00;102490.16;5051941;28;20037;-82
2022/04/30 02:46:23;;;;;;;44.78;17.05;;;;;;;9.27;100.00;102504.53;5049143;28;20612;-79
2022/04/30 02:48:49;;;;;;;43.78;18.15;;;;;;;9.27;100.00;102507.22;5064952;28;20025;-80
2022/04/30 02:51:17;;;;;;;41.30;17.40;;;;;;;9.24;100.00;102498.44;5035780;28;20035;-83
2022/04/30 02:53:43;;;;;;;42.08;19.77;;;;;;;9.23;100.00;102504.78;5067848;28;20037;-81
2022/04/30 02:56:10;;;;;;;43.60;17.67;;;;;;;9.21;100.00;102498.69;5051637;28;20044;-80
2022/04/30 03:01:21;;;;;;;38.88;17.60;;;;;;;9.17;100.00;102491.84;5049838;28;20037;-79
2022/04/30 03:03:47;;;;;;;39.70;17.42;;;;;;;9.17;100.00;102489.16;5066344;28;20036;-79
2022/04/30 03:06:20;;;;;;;37.88;15.75;;;;;;;9.15;100.00;102488.41;5051427;28;20440;-78
2022/04/30 03:08:49;;;;;;;39.85;16.33;;;;;;;9.13;100.00;102487.72;5049296;28;20041;-84
2022/04/30 03:11:15;;;;;;;36.30;15.05;;;;;;;9.09;100.00;102478.19;5051090;28;20534;-80
2022/04/30 03:13:40;;;;;;;33.65;15.13;;;;;;;9.12;100.00;102490.50;5067378;28;20037;-81
2022/04/30 03:21:42;;;;;;;36.35;16.40;;;;;;;9.12;100.00;102483.31;5050062;28;20047;-82
2022/04/30 03:24:09;;;;;;;42.00;16.88;;;;;;;9.08;100.00;102473.81;5053336;28;20123;-80
2022/04/30 03:26:34;;;;;;;37.60;16.90;;;;;;;9.13;100.00;102484.16;5053010;28;20036;-79
2022/04/30 03:29:00;;;;;;;38.20;16.40;;;;;;;9.16;100.00;102483.94;5034671;28;20036;-78
2022/04/30 03:31:26;;;;;;;38.22;16.88;;;;;;;9.16;100.00;102482.09;5039324;28;20028;-83
2022/04/30 03:33:51;;;;;;;30.00;14.25;;;;;;;9.18;100.00;102481.94;5032510;28;20394;-80
2022/04/30 03:36:20;;;;;;;35.00;14.23;;;;;;;9.20;100.00;102482.69;5049647;28;20086;-83
2022/04/30 03:38:47;;;;;;;33.63;13.98;;;;;;;9.18;100.00;102468.53;5067198;28;20028;-81
2022/04/30 03:41:13;;;;;;;31.55;13.02;;;;;;;9.14;100.00;102467.94;5070737;28;20084;-81
2022/04/30 03:43:38;;;;;;;30.10;10.48;;;;;;;9.09;100.00;102461.25;5071822;28;20469;-83
2022/04/30 03:46:05;;;;;;;20.70;8.77;;;;;;;9.13;100.00;102474.28;5050112;28;20051;-80
2022/04/30 03:48:30;;;;;;;5.15;3.67;;;;;;;9.15;100.00;102472.31;5070548;28;20085;-80
2022/04/30 03:50:57;;;;;;;3.67;3.38;;;;;;;9.15;100.00;102468.78;5049134;28;20036;-79
2022/04/30 03:53:23;;;;;;;2.33;1.85;;;;;;;9.15;100.00;102463.41;5051524;28;20127;-80
2022/04/30 03:55:48;;;;;;;2.90;2.70;;;;;;;9.16;100.00;102465.13;5037201;28;20124;-80
2022/04/30 03:58:14;;;;;;;1.40;1.33;;;;;;;9.17;100.00;102464.16;5053646;28;20033;-84
2022/04/30 04:00:39;;;;;;;0.93;0.93;;;;;;;9.15;100.00;102458.91;5068915;28;20024;-80
2022/04/30 04:03:06;;;;;;;1.95;1.85;;;;;;;9.17;100.00;102458.78;5067308;28;20056;-83
2022/04/30 04:05:32;;;;;;;2.45;2.25;;;;;;;9.18;100.00;102464.03;5070409;28;20029;-81
2022/04/30 04:07:58;;;;;;;1.17;1.17;;;;;;;9.10;100.00;102450.38;5070586;28;20081;-81
2022/04/30 04:10:23;;;;;;;8.48;3.20;;;;;;;9.19;100.00;102462.19;5034108;28;20459;-82
2022/04/30 04:12:50;;;;;;;0.60;0.60;;;;;;;9.16;100.00;102459.78;5072385;28;20024;-77
2022/04/30 04:17:59;;;;;;;0.40;0.40;;;;;;;9.06;100.00;102454.28;5054218;28;20123;-83
2022/04/30 04:20:25;;;;;;;0.40;0.40;;;;;;;9.03;100.00;102454.53;5081626;28;20039;-80
2022/04/30 04:22:54;;;;;;;0.32;0.32;;;;;;;9.00;100.00;102450.28;5051377;28;20503;-82
2022/04/30 04:28:04;;;;;;;0.75;0.75;;;;;;;8.97;100.00;102449.66;5070735;28;20480;-81
2022/04/30 04:30:32;;;;;;;0.45;0.45;;;;;;;8.97;100.00;102450.53;5070181;28;20036;-80
2022/04/30 04:32:58;;;;;;;0.82;0.82;;;;;;;8.95;100.00;102443.59;5052602;28;20039;-81
2022/04/30 04:35:25;;;;;;;0.40;0.40;;;;;;;8.94;100.00;102439.19;5060462;28;20383;-80
2022/04/30 04:37:51;;;;;;;0.55;0.55;;;;;;;8.94;100.00;102445.38;5049497;28;20067;-81
2022/04/30 04:40:17;;;;;;;1.88;1.35;;;;;;;8.82;100.00;102414.22;5050764;28;20257;-79
2022/04/30 04:42:44;;;;;;;0.88;0.85;;;;;;;8.97;100.00;102439.81;5052268;28;20020;-85
2022/04/30 04:45:10;;;;;;;0.43;0.43;;;;;;;8.95;100.00;102431.00;5033957;28;20038;-80
2022/04/30 04:47:39;;;;;;;0.40;0.40;;;;;;;8.77;100.00;102403.84;5031936;28;20040;-83
2022/04/30 04:50:05;;;;;;;0.40;0.40;;;;;;;9.00;100.00;102441.38;5039753;28;20123;-80
2022/04/30 04:52:31;;;;;;;0.40;0.40;;;;;;;8.96;100.00;102439.91;5041832;28;20036;-80
2022/04/30 04:54:59;;;;;;;0.40;0.40;;;;;;;8.95;100.00;102441.75;5050669;28;20032;-80
2022/04/30 04:57:25;;;;;;;0.50;0.50;;;;;;;8.95;100.00;102444.44;5068358;28;20032;-84
2022/04/30 04:59:51;;;;;;;0.40;0.40;;;;;;;8.95;100.00;102444.44;5049917;28;20471;-79
2022/04/30 05:02:18;;;;;;;0.40;0.40;;;;;;;8.96;100.00;102445.28;5029872;28;20135;-83
2022/04/30 05:04:43;;;;;;;0.40;0.40;;;;;;;8.95;100.00;102446.25;5071083;28;20038;-83
2022/04/30 05:07:09;;;;;;;1.90;1.80;;;;;;;8.96;100.00;102446.13;5036521;28;20036;-82
2022/04/30 05:09:34;;;;;;;1.75;1.63;;;;;;;8.99;100.00;102448.56;5035225;28;20516;-84
2022/04/30 05:12:01;;;;;;;0.40;0.40;;;;;;;9.00;100.00;102455.66;5044405;28;20043;-80
2022/04/30 05:14:33;;;;;;;0.40;0.40;;;;;;;9.01;100.00;102454.66;5040554;28;20499;-79
2022/04/30 05:16:59;;;;;;;0.40;0.40;;;;;;;9.02;100.00;102450.13;5060863;28;20037;-82
2022/04/30 05:19:25;;;;;;;0.40;0.40;;;;;;;8.92;100.00;102439.31;5035793;28;20036;-80
2022/04/30 05:21:50;;;;;;;0.40;0.40;;;;;;;8.96;100.00;102447.97;5050481;28;20032;-84
2022/04/30 05:24:16;;;;;;;0.30;0.30;;;;;;;8.99;100.00;102455.75;5063687;28;20048;-79
2022/04/30 05:26:42;;;;;;;0.47;0.45;;;;;;;9.01;100.00;102462.72;5038909;28;20039;-79
2022/04/30 05:29:07;;;;;;;0.70;0.70;;;;;;;9.02;100.00;102458.19;5052128;28;20432;-80
2022/04/30 05:31:33;;;;;;;0.98;0.98;;;;;;;9.02;100.00;102459.06;5045124;28;20037;-83
2022/04/30 05:33:59;;;;;;;0.40;0.40;;;;;;;8.98;100.00;102462.97;5067490;28;20406;-80
2022/04/30 05:36:24;;;;;;;0.40;0.40;;;;;;;9.01;100.00;102467.22;5036446;28;20099;-81
2022/04/30 05:38:52;;;;;;;1.25;1.15;;;;;;;9.00;100.00;102458.31;5067308;28;20044;-80
2022/04/30 05:41:18;;;;;;;0.40;0.40;;;;;;;9.10;100.00;102460.25;5063229;28;20043;-79
2022/04/30 05:43:43;;;;;;;0.50;0.50;;;;;;;9.13;100.00;102476.09;5061685;28;20111;-81
2022/04/30 05:46:09;;;;;;;1.25;1.25;;;;;;;8.92;100.00;102443.84;5043288;28;20063;-80
2022/04/30 05:48:35;;;;;;;0.40;0.40;;;;;;;8.98;100.00;102459.44;5063546;28;20020;-79
2022/04/30 05:51:02;;;;;;;0.60;0.60;;;;;;;9.01;100.00;102461.84;5047749;28;20037;-81
2022/04/30 05:53:28;;;;;;;0.40;0.40;;;;;;;9.08;100.00;102472.97;5037094;28;20036;-81
2022/04/30 05:55:54;;;;;;;0.40;0.40;;;;;;;9.10;100.00;102479.03;5049175;28;20036;-83
2022/04/30 05:58:19;;;;;;;0.82;0.82;;;;;;;9.11;100.00;102473.56;5034367;28;20390;-82
2022/04/30 06:00:45;;;;;;;0.40;0.40;;;;;;;9.12;100.00;102483.31;5036543;28;20036;-82
2022/04/30 06:03:11;;;;;;;0.30;0.30;;;;;;;9.11;100.00;102476.25;5068749;28;20032;-80
2022/04/30 06:05:37;;;;;;;0.40;0.40;;;;;;;9.03;100.00;102466.13;5037574;28;20042;-80
2022/04/30 06:08:04;;;;;;;0.30;0.30;;;;;;;9.06;100.00;102475.75;5070449;28;20112;-83
2022/04/30 06:10:30;;;;;;;0.60;0.60;;;;;;;9.06;100.00;102473.06;5053223;28;20052;-79
2022/04/30 06:12:55;;;;;;;0.40;0.40;;;;;;;9.01;100.00;102465.38;5052268;28;20071;-81
2022/04/30 06:15:21;;;;;;;0.40;0.40;;;;;;;9.06;100.00;102466.88;5036209;28;20028;-83
2022/04/30 06:17:47;;;;;;;0.40;0.40;;;;;;;9.11;100.00;102472.72;5053541;28;20479;-81
2022/04/30 06:20:12;;;;;;;0.40;0.40;;;;;;;9.16;100.00;102470.50;5077280;28;20066;-78
2022/04/30 06:22:38;;;;;;;0.40;0.40;;;;;;;9.21;100.00;102471.84;5070417;28;20097;-79
2022/04/30 06:25:04;;;;;;;0.50;0.50;;;;;;;9.28;100.00;102466.81;5085229;28;20227;-79
2022/04/30 06:27:30;;;;;;;0.40;0.40;;;;;;;9.27;100.00;102451.69;5089838;28;20041;-78
2022/04/30 06:29:55;;;;;;;0.50;0.50;;;;;;;9.37;100.00;102465.22;5089110;28;20067;-80
2022/04/30 06:32:21;;;;;;;0.40;0.40;;;;;;;9.46;100.00;102461.75;5069777;28;20039;-80
2022/04/30 06:34:47;;;;;;;0.40;0.40;;;;;;;9.54;100.00;102461.97;5070888;28;20475;-81
2022/04/30 06:37:12;;;;;;;0.40;0.40;;;;;;;9.56;100.00;102460.03;5050225;28;20032;-80
2022/04/30 06:39:38;;;;;;;0.40;0.40;;;;;;;9.46;100.00;102435.75;5045502;28;20029;-79
2022/04/30 06:42:04;;;;;;;0.40;0.40;;;;;;;9.62;100.00;102454.13;5067659;28;20417;-85
2022/04/30 06:44:30;;;;;;;0.80;0.80;;;;;;;9.69;100.00;102460.72;5052313;28;20039;-80
2022/04/30 06:46:56;;;;;;;0.43;0.43;;;;;;;9.75;100.00;102458.50;5034461;28;20056;-79
2022/04/30 06:49:23;;;;;;;0.40;0.40;;;;;;;9.78;100.00;102458.22;5063381;28;20119;-79
2022/04/30 06:51:49;;;;;;;0.40;0.40;;;;;;;9.85;100.00;102459.44;5071272;28;20043;-83
2022/04/30 06:57:08;;;;;;;0.40;0.40;;;;;;;9.84;100.00;102466.63;5049902;28;20438;-84
2022/04/30 06:59:41;;;;;;;0.40;0.40;;;;;;;9.90;100.00;102476.00;5035701;28;20037;-80
2022/04/30 07:02:13;;;;;;;0.40;0.40;;;;;;;9.97;100.00;102471.81;5035489;28;20043;-82
2022/04/30 07:04:44;;;;;;;1.00;1.00;;;;;;;10.03;100.00;102479.38;5050653;28;20036;-83
2022/04/30 07:07:10;;;;;;;0.40;0.40;;;;;;;9.97;100.00;102458.38;5050432;28;20028;-84
2022/04/30 07:09:37;;;;;;;0.40;0.40;;;;;;;10.13;100.00;102466.84;5066503;28;20119;-79
2022/04/30 07:12:06;;;;;;;0.40;0.40;;;;;;;10.17;100.00;102469.28;5067766;28;20028;-83
2022/04/30 07:14:40;;;;;;;0.40;0.40;;;;;;;10.19;100.00;102462.78;5058728;28;20252;-82
2022/04/30 07:17:08;;;;;;;0.40;0.40;;;;;;;10.27;100.00;102472.88;5037324;28;20047;-80
2022/04/30 07:19:34;;;;;;;0.40;0.40;;;;;;;10.23;100.00;102456.13;5069484;28;20068;-84
2022/04/30 07:22:01;;;;;;;0.38;0.38;;;;;;;10.43;100.00;102467.91;5070098;28;20045;-83
2022/04/30 07:24:27;;;;;;;0.40;0.40;;;;;;;10.52;100.00;102467.09;5067772;28;20467;-80
2022/04/30 07:26:53;;;;;;;0.40;0.40;;;;;;;10.56;100.00;102460.47;5054793;28;20111;-82
2022/04/30 07:29:18;;;;;;;0.40;0.40;;;;;;;10.62;100.00;102466.31;5056141;28;20021;-83
2022/04/30 07:31:44;;;;;;;0.40;0.40;;;;;;;10.67;100.00;102467.59;5063545;28;20115;-79
2022/04/30 07:34:10;;;;;;;0.40;0.40;;;;;;;10.73;100.00;102469.75;5049950;28;20075;-84
2022/04/30 07:36:36;;;;;;;0.70;0.70;;;;;;;10.71;100.00;102470.88;5055173;28;20047;-80
2022/04/30 07:39:02;;;;;;;0.40;0.40;;;;;;;10.74;100.00;102467.91;5055807;28;20067;-81
2022/04/30 07:41:28;;;;;;;0.40;0.40;;;;;;;10.73;100.00;102468.91;5036402;28;20036;-81
2022/04/30 07:43:53;;;;;;;0.40;0.40;;;;;;;10.71;100.00;102465.47;5052368;28;20037;-80
2022/04/30 07:46:19;;;;;;;0.40;0.40;;;;;;;10.79;100.00;102463.81;5068048;28;20173;-81
2022/04/30 07:48:45;;;;;;;0.50;0.50;;;;;;;10.82;100.00;102462.69;5054823;28;20484;-82
2022/04/30 07:51:14;;;;;;;0.40;0.40;;;;;;;10.75;100.00;102467.78;5053525;28;20033;-82
2022/04/30 07:53:43;;;;;;;0.40;0.40;;;;;;;10.80;100.00;102464.69;5055603;28;20066;-80
2022/04/30 07:56:09;;;;;;;0.40;0.40;;;;;;;10.86;100.00;102457.91;5035269;28;20079;-82
2022/04/30 07:58:35;;;;;;;0.40;0.40;;;;;;;10.82;100.00;102456.47;5055641;28;20081;-83
2022/04/30 08:01:01;;;;;;;0.43;0.43;;;;;;;10.80;100.00;102467.38;5052783;28;20435;-81
2022/04/30 08:03:26;;;;;;;0.40;0.40;;;;;;;10.80;100.00;102470.06;5068169;28;20554;-83
2022/04/30 08:05:52;;;;;;;0.40;0.40;;;;;;;10.79;100.00;102468.34;5071260;28;20032;-81
2022/04/30 08:08:18;;;;;;;0.40;0.40;;;;;;;10.85;100.00;102472.34;5036743;28;20466;-83
2022/04/30 08:10:45;;;;;;;0.40;0.40;;;;;;;10.90;100.00;102470.09;5063728;28;20032;-81
2022/04/30 08:13:11;;;;;;;0.40;0.40;;;;;;;10.96;100.00;102466.88;5067720;28;20037;-81
2022/04/30 08:15:42;;;;;;;0.40;0.40;;;;;;;11.02;100.00;102474.41;5064120;28;20033;-83
2022/04/30 08:18:09;;;;;;;0.40;0.40;;;;;;;11.04;100.00;102468.88;5055185;28;20055;-80
2022/04/30 08:20:36;;;;;;;0.40;0.40;;;;;;;11.13;100.00;102468.03;5066565;28;20493;-81
2022/04/30 08:23:02;;;;;;;0.40;0.40;;;;;;;11.21;100.00;102462.81;5069305;28;20024;-80
2022/04/30 08:25:28;;;;;;;0.40;0.40;;;;;;;11.37;100.00;102476.59;5066927;28;20121;-80
2022/04/30 08:27:53;;;;;;;0.40;0.40;;;;;;;11.49;100.00;102471.09;5062817;28;20036;-82
2022/04/30 08:30:19;;;;;;;0.82;0.82;;;;;;;11.34;100.00;102468.81;5042404;28;20128;-80
2022/04/30 08:32:47;;;;;;;0.40;0.40;;;;;;;11.38;100.00;102469.41;5051175;28;20462;-82
2022/04/30 08:35:13;;;;;;;0.40;0.40;;;;;;;11.37;100.00;102468.50;5039288;28;20127;-80
2022/04/30 08:37:38;;;;;;;0.40;0.40;;;;;;;11.23;100.00;102436.63;5035968;28;20043;-81
2022/04/30 08:40:05;;;;;;;0.40;0.40;;;;;;;11.38;100.00;102462.16;5044523;28;20043;-82
2022/04/30 08:42:30;;;;;;;0.50;0.50;;;;;;;11.43;100.00;102459.91;5033120;28;20481;-82
2022/04/30 08:44:56;;;;;;;0.40;0.40;;;;;;;11.48;100.00;102447.84;5071673;28;20021;-77
2022/04/30 08:47:22;;;;;;;0.40;0.40;;;;;;;11.67;100.00;102447.88;5034667;28;20480;-81
2022/04/30 08:49:48;;;;;;;0.40;0.40;;;;;;;11.93;100.00;102444.59;5038917;28;20101;-80
2022/04/30 08:52:15;;;;;;;0.40;0.40;;;;;;;12.20;100.00;102444.72;5037646;28;20060;-81
2022/04/30 08:54:41;;;;;;;0.40;0.40;;;;;;;12.47;100.00;102437.69;5071244;28;20028;-82
2022/04/30 08:57:07;;;;;;;0.40;0.40;;;;;;;12.67;100.00;102441.16;5033579;28;20033;-84
2022/04/30 08:59:33;;;;;;;0.40;0.40;;;;;;;12.70;100.00;102422.84;5037704;28;20041;-83
2022/04/30 09:01:58;;;;;;;0.50;0.50;;;;;;;12.70;100.00;102427.34;5071517;28;20052;-81
2022/04/30 09:04:41;;;;;;;0.40;0.40;;;;;;;12.74;100.00;102429.63;5071774;28;20425;-83
2022/04/30 09:07:12;;;;;;;0.50;0.50;;;;;;;12.85;100.00;102416.91;5069726;28;20465;-80
2022/04/30 09:09:38;;;;;;;0.40;0.40;;;;;;;13.09;100.00;102430.69;5043927;28;20041;-84
2022/04/30 09:12:08;;;;;;;0.50;0.50;;;;;;;13.07;100.00;102437.25;5059398;28;20040;-82
2022/04/30 09:14:33;;;;;;;0.40;0.40;;;;;;;13.16;100.00;102428.25;5062486;28;20462;-81
2022/04/30 09:17:10;;;;;;;0.40;0.40;;;;;;;13.32;100.00;102428.47;5064494;28;20064;-83
2022/04/30 09:19:49;;;;;;;0.40;0.40;;;;;;;13.47;100.00;102423.38;5053670;28;20064;-86
2022/04/30 09:22:15;;;;;;;0.40;0.40;;;;;;;13.50;100.00;102416.81;5054050;28;20043;-83
2022/04/30 09:24:53;;;;;;;0.40;0.40;;;;;;;13.59;100.00;102421.28;5068873;28;20462;-83
2022/04/30 09:27:18;;;;;;;0.40;0.40;;;;;;;13.55;100.00;102420.75;5036131;28;20033;-81
2022/04/30 09:29:44;;;;;;;0.40;0.40;;;;;;;13.44;100.00;102412.84;5034501;28;20488;-85
2022/04/30 09:32:21;;;;;;;0.60;0.60;;;;;;;13.21;100.00;102417.84;5044080;28;20381;-80
2022/04/30 09:37:49;;;;;;;0.40;0.40;;;;;;;13.17;100.00;102401.06;5063996;28;20115;-83
2022/04/30 09:40:14;;;;;;;0.40;0.40;;;;;;;13.29;100.00;102406.31;5067386;28;20064;-81
2022/04/30 09:42:46;;;;;;;0.40;0.40;;;;;;;13.33;100.00;102402.28;5067785;28;20028;-81
2022/04/30 09:45:29;;;;;;;0.40;0.40;;;;;;;13.20;100.00;102410.72;5067228;28;20040;-83
2022/04/30 09:47:56;;;;;;;0.50;0.50;;;;;;;13.28;100.00;102404.59;5069782;28;20020;-84
2022/04/30 09:55:53;;;;;;;0.50;0.50;;;;;;;13.82;100.00;102397.31;5064877;28;20028;-82
2022/04/30 09:58:26;;;;;;;0.40;0.40;;;;;;;13.88;100.00;102390.44;5051450;28;20024;-83
2022/04/30 10:00:57;;;;;;;0.40;0.40;;;;;;;13.91;100.00;102387.41;5046681;28;20036;-82
2022/04/30 10:03:28;;;;;;;0.50;0.50;;;;;;;14.11;100.00;102386.19;5049678;28;20028;-84
2022/04/30 10:06:04;;;;;;;0.40;0.40;;;;;;;14.14;100.00;102395.84;5051919;28;20025;-85
2022/04/30 10:08:32;;;;;;;0.40;0.40;;;;;;;14.01;100.00;102383.59;5051167;28;20036;-83
2022/04/30 10:11:06;;;;;;;0.40;0.40;;;;;;;14.25;100.00;102382.91;5051133;28;20115;-82
2022/04/30 10:13:44;;;;;;;0.47;0.47;;;;;;;14.45;99.34;102363.75;5069933;28;20025;-81
2022/04/30 10:16:19;;;;;;;0.50;0.50;;;;;;;14.82;98.01;102376.94;5067226;28;20028;-83
2022/04/30 10:18:50;;;;;;;0.60;0.60;;;;;;;15.15;98.21;102377.00;5036908;28;20063;-83
2022/04/30 10:21:19;;;;;;;0.50;0.50;;;;;;;15.53;99.04;102374.66;5069416;28;20133;-82
2022/04/30 10:23:45;;;;;;;0.60;0.60;;;;;;;15.71;97.48;102377.25;5046913;28;20063;-82
2022/04/30 10:26:11;;;;;;;0.63;0.63;;;;;;;15.84;93.82;102372.16;5036837;28;20075;-82
2022/04/30 10:28:36;;;;;;;0.40;0.40;;;;;;;15.79;94.21;102377.25;5066149;28;20039;-82
2022/04/30 10:31:02;;;;;;;0.50;0.50;;;;;;;15.70;93.46;102362.84;5068366;28;20047;-83
2022/04/30 10:33:27;;;;;;;0.40;0.40;;;;;;;15.64;94.69;102365.34;5069430;28;20079;-82
2022/04/30 10:36:07;;;;;;;0.50;0.50;;;;;;;15.61;94.64;102364.69;5070511;28;20028;-83
2022/04/30 10:38:33;;;;;;;0.52;0.52;;;;;;;15.49;95.79;102365.19;5069463;28;20064;-82
2022/04/30 10:41:01;;;;;;;0.60;0.60;;;;;;;15.59;97.23;102366.72;5067492;28;20077;-81
2022/04/30 10:43:32;;;;;;;1.08;1.08;;;;;;;15.67;94.49;102360.47;5024304;28;20033;-83
2022/04/30 10:45:58;;;;;;;4.57;2.45;;;;;;;15.72;95.35;102351.84;5035870;28;20029;-83
2022/04/30 10:48:25;;;;;;;1.27;1.00;;;;;;;16.05;95.56;102355.34;5053801;28;20115;-82
2022/04/30 10:51:02;;;;;;;1.27;1.05;;;;;;;16.08;94.16;102352.28;5053302;28;20424;-84
2022/04/30 10:53:28;;;;;;;3.17;2.70;;;;;;;16.07;95.55;102350.59;5057162;28;20194;-80
2022/04/30 10:55:54;;;;;;;0.60;0.60;;;;;;;16.15;95.55;102311.72;5065792;28;20063;-83
2022/04/30 10:58:24;;;;;;;3.85;2.72;;;;;;;16.89;93.37;102347.56;5032022;28;20035;-83
2022/04/30 11:00:50;;;;;;;6.68;2.88;;;;;;;17.31;90.54;102349.84;5066369;28;20040;-82
2022/04/30 11:03:17;;;;;;;2.50;1.80;;;;;;;17.92;86.79;102336.22;5072617;28;20032;-82
2022/04/30 11:05:43;;;;;;;7.50;3.65;;;;;;;18.19;84.81;102331.16;5040439;28;20024;-83
2022/04/30 11:08:09;;;;;;;1.85;1.40;;;;;;;18.19;84.68;102333.88;5064160;28;20082;-81
2022/04/30 11:10:35;;;;;;;14.07;7.60;;;;;;;17.82;85.42;102332.94;5073501;28;20048;-85
2022/04/30 11:13:02;;;;;;;17.63;7.72;;;;;;;18.00;88.38;102322.53;5054028;28;20045;-84
2022/04/30 11:15:28;;;;;;;17.83;7.82;;;;;;;18.67;85.28;102324.25;5068625;28;20473;-81
2022/04/30 11:17:57;;;;;;;15.75;8.55;;;;;;;19.63;80.02;102314.94;5056984;28;20119;-81
2022/04/30 11:20:23;;;;;;;17.15;9.45;;;;;;;20.40;78.69;102314.81;5069039;28;20105;-83
2022/04/30 11:22:56;;;;;;;16.33;8.18;;;;;;;19.94;79.19;102311.81;5072739;28;20476;-86
2022/04/30 11:25:32;;;;;;;22.13;11.63;;;;;;;19.87;79.89;102300.00;5040628;28;20048;-85
2022/04/30 11:27:58;;;;;;;18.95;10.13;;;;;;;20.19;80.61;102304.84;5056117;28;20407;-85
2022/04/30 11:30:24;;;;;;;11.43;7.13;;;;;;;20.16;78.53;102294.34;5058957;28;20053;-84
2022/04/30 11:32:50;;;;;;;20.73;11.55;;;;;;;20.20;78.92;102294.75;5069997;28;20040;-82
2022/04/30 11:35:19;;;;;;;18.20;10.25;;;;;;;19.87;79.83;102286.38;5039167;28;20047;-85
2022/04/30 11:37:44;;;;;;;20.75;13.15;;;;;;;19.76;78.96;102291.34;5073505;28;20040;-82
2022/04/30 11:40:11;;;;;;;24.40;13.63;;;;;;;19.48;80.55;102276.84;5073954;28;20028;-83
2022/04/30 11:42:37;;;;;;;23.95;13.73;;;;;;;19.06;81.87;102275.84;5043049;28;20028;-82
2022/04/30 11:45:03;;;;;;;24.90;13.98;;;;;;;19.08;83.12;102268.31;5072322;28;20090;-81
2022/04/30 11:47:28;;;;;;;19.10;11.40;;;;;;;19.50;79.25;102270.16;5071204;28;20124;-82